Conklin, Canada
Current Conditions -  °F | °C
As of 1:01 PM on Thursday 18 Dec 2014 (Local Time) from CWHN Reporting Station
Overcast Overcast  
Wind Chill: 18°   Ceiling: 300
Heat Index: 18°   Visibility: 9mi
Dew Point: 16°   Wind: 3mph
Humidity: 93%   Direction: 220°SW
Pressure: 29.81"   Gusts: NA
Location:  55.63°N, 111.08°W
Report Text: CWHN 182001Z AUTO 22003KT 200V290 9SM OVC003 M08/M09 A2981
Loading
Personal Weather Stations






























Interactive Weather Map New forecast layout! Learn more

10-Day Weather Forecast

Advertisements
Track Severe Weather on mobile